createdAt,value
2022-11-13T00:00:53.642Z,25.53
2022-11-13T00:03:41.812Z,26.10
2022-11-13T00:06:27.946Z,26.93
2022-11-13T00:09:14.442Z,25.33
2022-11-13T00:12:00.419Z,25.20
2022-11-13T00:14:46.805Z,23.70
2022-11-13T00:17:33.528Z,23.97
2022-11-13T00:20:21.440Z,24.23
2022-11-13T00:23:07.857Z,22.57
2022-11-13T00:25:54.605Z,23.07
2022-11-13T00:28:41.337Z,23.77
2022-11-13T00:31:28.669Z,23.57
2022-11-13T00:34:41.045Z,22.67
2022-11-13T00:37:23.278Z,22.90
2022-11-13T00:40:10.189Z,23.43
2022-11-13T00:42:57.095Z,24.00
2022-11-13T00:45:43.443Z,23.03
2022-11-13T00:48:30.235Z,22.43
2022-11-13T00:51:17.097Z,23.00
2022-11-13T00:54:05.142Z,25.73
2022-11-13T00:56:53.665Z,25.43
2022-11-13T00:59:40.580Z,23.90
2022-11-13T01:02:26.757Z,24.20
2022-11-13T01:05:13.568Z,26.87
2022-11-13T01:07:59.607Z,25.53
2022-11-13T01:10:53.369Z,26.43
2022-11-13T01:13:41.044Z,26.20
2022-11-13T01:16:29.602Z,24.53
2022-11-13T01:19:16.117Z,24.37
2022-11-13T01:22:03.304Z,26.10
2022-11-13T01:24:49.280Z,24.97
2022-11-13T01:27:38.190Z,25.57
2022-11-13T01:30:24.931Z,25.00
2022-11-13T01:33:13.007Z,25.30
2022-11-13T01:36:03.141Z,25.50
2022-11-13T01:38:50.240Z,25.00
2022-11-13T01:41:36.587Z,26.07
2022-11-13T01:44:24.800Z,24.10
2022-11-13T01:47:11.242Z,26.43
2022-11-13T01:49:59.816Z,24.47
2022-11-13T01:52:45.904Z,22.50
2022-11-13T01:55:32.052Z,23.43
2022-11-13T01:58:18.348Z,22.93
2022-11-13T02:01:06.624Z,22.70
2022-11-13T02:03:52.764Z,21.40
2022-11-13T02:06:42.311Z,20.77
2022-11-13T02:09:29.974Z,21.83
2022-11-13T02:12:17.585Z,22.13
2022-11-13T02:15:05.993Z,22.77
2022-11-13T02:17:55.882Z,22.00
2022-11-13T02:20:44.846Z,22.50
2022-11-13T02:23:35.725Z,22.27
2022-11-13T02:26:24.903Z,19.20
2022-11-13T02:29:12.010Z,19.20
2022-11-13T02:31:57.998Z,20.77
2022-11-13T02:34:44.517Z,18.43
2022-11-13T02:37:31.332Z,18.50
2022-11-13T02:40:18.530Z,18.03
2022-11-13T02:43:06.173Z,17.70
2022-11-13T02:45:53.291Z,17.23
2022-11-13T02:48:39.490Z,18.07
2022-11-13T02:51:26.530Z,18.10
2022-11-13T02:54:16.662Z,18.10
2022-11-13T02:57:03.566Z,17.00
2022-11-13T02:59:51.512Z,15.70
2022-11-13T03:02:38.314Z,17.50
2022-11-13T03:05:24.949Z,18.10
2022-11-13T03:08:11.646Z,20.37
2022-11-13T03:10:58.252Z,17.43
2022-11-13T03:13:44.520Z,16.53
2022-11-13T03:16:32.431Z,18.70
2022-11-13T03:19:18.671Z,16.30
2022-11-13T03:22:05.754Z,15.80
2022-11-13T03:24:52.289Z,15.90
2022-11-13T03:27:39.612Z,15.80
2022-11-13T03:30:26.049Z,14.90
2022-11-13T03:33:13.851Z,16.10
2022-11-13T03:35:59.974Z,13.60
2022-11-13T03:38:46.576Z,13.80
2022-11-13T03:41:32.602Z,15.30
2022-11-13T03:44:19.118Z,14.83
2022-11-13T03:47:05.913Z,14.80
2022-11-13T03:49:53.587Z,13.47
2022-11-13T03:52:40.582Z,15.43
2022-11-13T03:55:27.088Z,14.57
2022-11-13T03:58:13.646Z,14.90
2022-11-13T04:00:59.676Z,15.83
2022-11-13T04:03:47.120Z,16.17
2022-11-13T04:06:34.665Z,14.97
2022-11-13T04:09:21.360Z,15.80
2022-11-13T04:12:07.614Z,16.00
2022-11-13T04:14:54.343Z,14.03
2022-11-13T04:17:40.525Z,16.17
2022-11-13T04:20:31.109Z,15.93
2022-11-13T04:23:19.097Z,17.07
2022-11-13T04:26:05.974Z,15.70
2022-11-13T04:28:52.023Z,14.97
2022-11-13T04:31:38.295Z,15.47
2022-11-13T04:34:24.648Z,14.93
2022-11-13T04:37:11.648Z,16.00
2022-11-13T04:39:59.289Z,14.93
2022-11-13T04:42:51.249Z,16.50
2022-11-13T04:45:37.584Z,16.07
2022-11-13T04:48:24.390Z,16.50
2022-11-13T04:51:10.661Z,15.33
2022-11-13T04:53:57.308Z,13.47
2022-11-13T04:56:44.885Z,15.40
2022-11-13T04:59:31.486Z,14.20
2022-11-13T05:02:17.814Z,15.20
2022-11-13T05:05:05.526Z,15.00
2022-11-13T05:07:51.835Z,14.77
2022-11-13T05:10:38.801Z,15.17
2022-11-13T05:13:26.619Z,14.00
2022-11-13T05:16:14.652Z,15.57
2022-11-13T05:19:00.873Z,14.60
2022-11-13T05:21:47.151Z,14.27
2022-11-13T05:24:33.451Z,14.20
2022-11-13T05:27:20.114Z,14.37
2022-11-13T05:30:09.213Z,14.50
2022-11-13T05:32:55.747Z,14.53
2022-11-13T05:35:42.110Z,14.80
2022-11-13T05:38:30.077Z,15.30
2022-11-13T05:41:17.666Z,14.87
2022-11-13T05:44:04.711Z,14.47
2022-11-13T05:46:52.520Z,15.90
2022-11-13T05:49:39.580Z,15.53
2022-11-13T05:52:26.187Z,16.30
2022-11-13T05:55:12.918Z,15.33
2022-11-13T05:57:59.446Z,15.50
2022-11-13T06:00:46.557Z,15.63
2022-11-13T06:03:35.033Z,16.20
2022-11-13T06:06:22.768Z,16.87
2022-11-13T06:09:09.146Z,15.57
2022-11-13T06:11:55.816Z,16.40
2022-11-13T06:14:42.104Z,17.13
2022-11-13T06:17:29.028Z,17.97
2022-11-13T06:20:16.998Z,18.87
2022-11-13T06:23:04.661Z,20.20
2022-11-13T06:25:51.266Z,19.57
2022-11-13T06:28:38.135Z,21.30
2022-11-13T06:31:25.735Z,21.47
2022-11-13T06:34:12.220Z,21.83
2022-11-13T06:37:01.923Z,23.37
2022-11-13T06:39:48.971Z,22.43
2022-11-13T06:42:36.020Z,23.20
2022-11-13T06:45:22.224Z,25.90
2022-11-13T06:48:08.748Z,23.30
2022-11-13T06:50:55.122Z,22.80
2022-11-13T06:53:43.681Z,26.60
2022-11-13T06:56:29.729Z,25.57
2022-11-13T06:59:16.258Z,23.30
2022-11-13T07:02:02.326Z,21.53
2022-11-13T07:04:48.915Z,21.53
2022-11-13T07:07:35.401Z,21.23
2022-11-13T07:10:23.372Z,20.67
2022-11-13T07:13:09.993Z,20.33
2022-11-13T07:16:09.290Z,18.43
2022-11-13T07:19:02.324Z,19.47
2022-11-13T07:21:49.084Z,19.00
2022-11-13T07:24:35.392Z,19.67
2022-11-13T07:27:24.058Z,18.43
2022-11-13T07:30:10.769Z,18.50
2022-11-13T07:32:57.644Z,18.00
2022-11-13T07:35:44.301Z,19.20
2022-11-13T07:38:31.145Z,17.90
2022-11-13T07:41:18.044Z,19.83
2022-11-13T07:44:09.118Z,19.10
2022-11-13T07:46:56.340Z,18.93
2022-11-13T07:49:43.108Z,19.13
2022-11-13T07:52:29.643Z,19.17
2022-11-13T07:55:16.229Z,19.47
2022-11-13T07:58:03.029Z,19.70
2022-11-13T08:00:50.803Z,18.80
2022-11-13T08:03:37.633Z,17.53
2022-11-13T08:06:27.714Z,18.67
2022-11-13T08:09:15.183Z,19.77
2022-11-13T08:12:01.591Z,20.60
2022-11-13T08:14:47.839Z,21.40
2022-11-13T08:17:36.295Z,19.47
2022-11-13T08:20:22.972Z,20.77
2022-11-13T08:23:10.222Z,19.90
2022-11-13T08:25:56.483Z,21.17
2022-11-13T08:28:44.199Z,21.20
2022-11-13T08:31:30.164Z,21.00
2022-11-13T08:34:19.836Z,20.43
2022-11-13T08:37:06.081Z,18.87
2022-11-13T08:39:52.690Z,20.00
2022-11-13T08:42:38.986Z,19.60
2022-11-13T08:45:25.628Z,19.20
2022-11-13T08:48:11.714Z,19.20
2022-11-13T08:51:00.099Z,19.07
2022-11-13T08:53:46.473Z,20.73
2022-11-13T08:56:32.913Z,19.37
2022-11-13T08:59:19.216Z,19.70
2022-11-13T09:02:05.648Z,18.70
2022-11-13T09:04:52.076Z,18.47
2022-11-13T09:07:40.179Z,20.27
2022-11-13T09:10:27.304Z,20.20
2022-11-13T09:13:14.461Z,18.53
2022-11-13T09:16:00.805Z,19.60
2022-11-13T09:18:50.102Z,18.67
2022-11-13T09:21:36.155Z,18.50
2022-11-13T09:24:23.817Z,18.30
2022-11-13T09:27:09.862Z,18.50
2022-11-13T09:29:56.682Z,18.60
2022-11-13T09:32:42.780Z,17.80
2022-11-13T09:35:35.345Z,17.47
2022-11-13T09:38:22.139Z,18.17
2022-11-13T09:41:11.457Z,16.20
2022-11-13T09:44:01.620Z,16.50
2022-11-13T09:46:50.730Z,16.10
2022-11-13T09:49:38.389Z,16.00
2022-11-13T09:52:31.362Z,15.30
2022-11-13T09:55:18.644Z,16.23
2022-11-13T09:58:08.792Z,15.07
2022-11-13T10:00:55.270Z,15.03
2022-11-13T10:04:03.467Z,16.90
2022-11-13T10:06:57.925Z,15.43
2022-11-13T10:09:50.955Z,14.60
2022-11-13T10:12:37.743Z,14.70
2022-11-13T10:15:26.598Z,14.60
2022-11-13T10:18:14.713Z,14.70
2022-11-13T10:21:09.716Z,14.83
2022-11-13T10:23:57.396Z,15.63
2022-11-13T10:26:44.503Z,13.70
2022-11-13T10:29:31.083Z,14.73
2022-11-13T10:32:21.406Z,15.13
2022-11-13T10:35:18.712Z,18.73
2022-11-13T10:38:08.547Z,13.77
2022-11-13T10:41:05.600Z,13.37
2022-11-13T10:43:52.887Z,13.30
2022-11-13T10:46:39.093Z,13.37
2022-11-13T10:49:29.252Z,13.97
2022-11-13T10:52:18.603Z,12.97
2022-11-13T10:55:06.319Z,14.50
2022-11-13T10:57:56.705Z,13.27
2022-11-13T11:00:45.069Z,14.53
2022-11-13T11:03:31.194Z,13.00
2022-11-13T11:06:19.731Z,13.27
2022-11-13T11:09:07.272Z,13.30
2022-11-13T11:12:19.205Z,13.93
2022-11-13T11:15:11.390Z,13.60
2022-11-13T11:18:00.830Z,12.40
2022-11-13T11:20:48.863Z,12.83
2022-11-13T11:23:40.981Z,12.97
2022-11-13T11:26:30.111Z,12.47
2022-11-13T11:29:20.209Z,11.77
2022-11-13T11:32:12.107Z,12.57
2022-11-13T11:35:02.484Z,12.33
2022-11-13T11:37:52.913Z,11.40
2022-11-13T11:40:42.013Z,12.43
2022-11-13T11:43:32.584Z,13.60
2022-11-13T11:46:21.211Z,13.60
2022-11-13T11:49:07.221Z,12.47
2022-11-13T11:51:58.610Z,13.23
2022-11-13T11:54:51.621Z,12.90
2022-11-13T11:57:46.120Z,13.20
2022-11-13T12:00:32.855Z,13.37
2022-11-13T12:03:35.513Z,14.47
2022-11-13T12:06:27.578Z,13.20
2022-11-13T12:09:19.593Z,13.47
2022-11-13T12:12:11.133Z,14.40
2022-11-13T12:15:04.040Z,14.20
2022-11-13T12:17:56.986Z,15.60
2022-11-13T12:20:45.853Z,15.47
2022-11-13T12:23:36.959Z,15.97
2022-11-13T12:26:27.282Z,16.40
2022-11-13T12:29:22.079Z,17.20
2022-11-13T12:32:20.636Z,16.10
2022-11-13T12:35:10.822Z,16.20
2022-11-13T12:37:59.585Z,15.90
2022-11-13T12:40:50.509Z,16.10
2022-11-13T12:43:48.294Z,15.70
2022-11-13T12:46:37.134Z,15.17
2022-11-13T12:49:29.881Z,15.67
2022-11-13T12:52:22.734Z,15.80
2022-11-13T12:55:24.957Z,17.60
2022-11-13T12:58:12.607Z,15.87
2022-11-13T13:01:02.025Z,17.20
2022-11-13T13:04:00.131Z,18.00
2022-11-13T13:06:52.885Z,17.50
2022-11-13T13:09:44.607Z,16.80
2022-11-13T13:12:40.640Z,15.60
2022-11-13T13:15:31.302Z,16.10
2022-11-13T13:18:27.303Z,16.67
2022-11-13T13:21:15.132Z,15.63
2022-11-13T13:24:09.742Z,15.27
2022-11-13T13:26:56.188Z,17.10
2022-11-13T13:29:43.391Z,18.00
2022-11-13T13:32:35.472Z,15.73
2022-11-13T13:35:25.207Z,15.80
2022-11-13T13:38:17.901Z,16.33
2022-11-13T13:41:17.858Z,15.27
2022-11-13T13:44:19.244Z,14.90
2022-11-13T13:47:11.635Z,16.07
2022-11-13T13:49:58.210Z,15.37
2022-11-13T13:52:45.594Z,15.50
2022-11-13T13:55:33.801Z,17.33
2022-11-13T13:58:24.396Z,17.40
2022-11-13T14:01:19.422Z,16.97
2022-11-13T14:04:07.500Z,17.20
2022-11-13T14:06:54.493Z,16.17
2022-11-13T14:09:44.443Z,16.50
2022-11-13T14:12:31.293Z,17.37
2022-11-13T14:15:22.797Z,16.10
2022-11-13T14:18:10.386Z,15.50
2022-11-13T14:21:00.137Z,16.20
2022-11-13T14:23:50.062Z,15.70
2022-11-13T14:26:37.240Z,16.20
2022-11-13T14:29:25.410Z,16.40
2022-11-13T14:32:14.674Z,16.90
2022-11-13T14:35:01.591Z,16.40
2022-11-13T14:37:49.685Z,18.23
2022-11-13T14:40:37.507Z,17.23
2022-11-13T14:43:27.803Z,17.07
2022-11-13T14:46:26.443Z,17.17
2022-11-13T14:49:16.245Z,17.00
2022-11-13T14:52:03.070Z,15.50
2022-11-13T14:55:16.140Z,17.33
2022-11-13T14:57:56.180Z,16.43
2022-11-13T15:00:42.855Z,17.40
2022-11-13T15:03:29.719Z,17.03
2022-11-13T15:06:19.616Z,15.53
2022-11-13T15:09:07.380Z,17.93
2022-11-13T15:11:54.854Z,16.93
2022-11-13T15:14:42.391Z,16.33
2022-11-13T15:17:28.781Z,17.90
2022-11-13T15:20:16.361Z,17.10
2022-11-13T15:23:04.762Z,16.90
2022-11-13T15:25:50.962Z,17.13
2022-11-13T15:28:37.875Z,18.13
2022-11-13T15:31:25.482Z,17.80
2022-11-13T15:34:12.472Z,18.20
2022-11-13T15:36:58.779Z,18.73
2022-11-13T15:39:48.413Z,17.97
2022-11-13T15:42:36.157Z,19.63
2022-11-13T15:45:22.883Z,19.00
2022-11-13T15:48:12.937Z,19.50
2022-11-13T15:50:59.834Z,18.57
2022-11-13T15:53:50.689Z,18.93
2022-11-13T15:56:39.986Z,20.30
2022-11-13T15:59:26.894Z,21.60
2022-11-13T16:02:13.928Z,20.10
2022-11-13T16:05:00.265Z,21.13
2022-11-13T16:07:47.345Z,20.40
2022-11-13T16:10:33.461Z,21.00
2022-11-13T16:13:21.410Z,20.70
2022-11-13T16:16:09.506Z,20.17
2022-11-13T16:19:00.234Z,19.83
2022-11-13T16:21:47.340Z,20.77
2022-11-13T16:24:34.913Z,21.37
2022-11-13T16:27:26.042Z,21.83
2022-11-13T16:30:20.490Z,22.90
2022-11-13T16:33:09.115Z,20.90
2022-11-13T16:35:56.165Z,21.73
2022-11-13T16:38:44.227Z,22.63
2022-11-13T16:41:31.931Z,22.13
2022-11-13T16:44:18.432Z,21.80
2022-11-13T16:47:07.334Z,23.60
2022-11-13T16:49:54.229Z,21.30
2022-11-13T16:52:41.169Z,23.30
2022-11-13T16:55:27.678Z,24.83
2022-11-13T16:58:14.508Z,23.27
2022-11-13T17:04:25.922Z,24.73
2022-11-13T17:11:06.329Z,24.60
2022-11-13T17:13:53.693Z,25.57
2022-11-13T17:16:40.000Z,26.97
2022-11-13T17:19:27.845Z,26.50
2022-11-13T17:22:17.115Z,26.50
2022-11-13T17:25:03.520Z,26.80
2022-11-13T17:27:50.413Z,26.60
2022-11-13T17:30:36.529Z,27.70
2022-11-13T17:33:23.044Z,27.33
2022-11-13T17:36:11.443Z,26.57
2022-11-13T17:38:58.813Z,27.93
2022-11-13T17:41:44.957Z,28.27
2022-11-13T17:44:31.453Z,27.27
2022-11-13T17:47:17.871Z,28.63
2022-11-13T17:50:07.580Z,26.53
2022-11-13T17:52:55.726Z,26.50
2022-11-13T17:55:42.141Z,28.53
2022-11-13T17:58:28.972Z,27.00
2022-11-13T18:01:17.201Z,28.33
2022-11-13T18:04:04.276Z,25.27
2022-11-13T18:06:51.178Z,27.73
2022-11-13T18:09:38.817Z,27.13
2022-11-13T18:12:25.145Z,27.00
2022-11-13T18:15:11.641Z,27.40
2022-11-13T18:17:57.810Z,28.30
2022-11-13T18:20:43.940Z,27.40
2022-11-13T18:23:30.918Z,26.40
2022-11-13T18:26:20.001Z,26.87
2022-11-13T18:29:06.364Z,27.03
2022-11-13T18:31:52.717Z,28.00
2022-11-13T18:34:39.448Z,28.07
2022-11-13T18:37:25.485Z,27.37
2022-11-13T18:40:12.719Z,26.40
2022-11-13T18:43:01.002Z,26.80
2022-11-13T18:45:56.360Z,26.50
2022-11-13T18:48:44.817Z,27.10
2022-11-13T18:51:35.518Z,26.20
2022-11-13T18:54:21.850Z,26.77
2022-11-13T18:57:08.555Z,26.90
2022-11-13T18:59:56.146Z,26.53
2022-11-13T19:02:41.994Z,26.07
2022-11-13T19:05:28.460Z,25.67
2022-11-13T19:08:15.119Z,24.27
2022-11-13T19:11:03.994Z,25.87
2022-11-13T19:13:50.737Z,26.13
2022-11-13T19:16:39.033Z,26.20
2022-11-13T19:19:25.252Z,26.90
2022-11-13T19:22:11.363Z,25.60
2022-11-13T19:24:58.089Z,24.97
2022-11-13T19:27:44.398Z,25.40
2022-11-13T19:30:31.138Z,24.80
2022-11-13T19:33:18.711Z,25.50
2022-11-13T19:36:08.309Z,25.43
2022-11-13T19:38:54.770Z,25.97
2022-11-13T19:41:41.242Z,26.97
2022-11-13T19:44:27.955Z,26.27
2022-11-13T19:47:14.659Z,26.50
2022-11-13T19:50:02.344Z,26.27
2022-11-13T19:52:48.814Z,25.70
2022-11-13T19:55:35.698Z,24.00
2022-11-13T19:58:22.352Z,25.53
2022-11-13T20:01:09.367Z,25.17
2022-11-13T20:03:56.144Z,26.30
2022-11-13T20:06:43.673Z,25.37
2022-11-13T20:09:30.368Z,27.17
2022-11-13T20:12:17.240Z,26.30
2022-11-13T20:15:04.493Z,25.20
2022-11-13T20:17:50.737Z,25.00
2022-11-13T20:20:37.413Z,25.53
2022-11-13T20:23:25.861Z,25.00
2022-11-13T20:26:16.391Z,26.03
2022-11-13T20:29:02.811Z,26.80
2022-11-13T20:31:49.419Z,27.30
2022-11-13T20:34:35.679Z,27.47
2022-11-13T20:37:22.610Z,26.57
2022-11-13T20:40:11.188Z,29.30
2022-11-13T20:42:57.793Z,28.47
2022-11-13T20:45:44.145Z,28.80
2022-11-13T20:48:31.198Z,28.50
2022-11-13T20:51:19.352Z,29.50
2022-11-13T20:54:06.154Z,30.40
2022-11-13T20:56:53.722Z,30.47
2022-11-13T20:59:39.995Z,29.93
2022-11-13T21:02:26.946Z,31.53
2022-11-13T21:05:13.414Z,31.03
2022-11-13T21:07:59.632Z,30.80
2022-11-13T21:10:45.765Z,31.67
2022-11-13T21:13:34.111Z,31.77
2022-11-13T21:16:20.403Z,31.40
2022-11-13T21:19:07.856Z,32.20
2022-11-13T21:21:53.872Z,29.77
2022-11-13T21:24:40.677Z,30.73
2022-11-13T21:27:26.926Z,32.80
2022-11-13T21:30:15.158Z,32.17
2022-11-13T21:33:02.204Z,32.10
2022-11-13T21:35:48.971Z,33.00
2022-11-13T21:38:36.031Z,34.13
2022-11-13T21:41:24.839Z,34.53
2022-11-13T21:44:11.800Z,35.20
2022-11-13T21:47:00.005Z,33.80
2022-11-13T21:49:46.511Z,35.03
2022-11-13T21:52:33.235Z,35.20
2022-11-13T21:55:19.280Z,35.03
2022-11-13T21:58:05.585Z,34.87
2022-11-13T22:00:51.641Z,35.30
2022-11-13T22:03:39.612Z,36.57
2022-11-13T22:06:27.077Z,36.30
2022-11-13T22:09:14.889Z,37.80
2022-11-13T22:12:01.299Z,37.10
2022-11-13T22:14:48.020Z,39.40
2022-11-13T22:17:34.749Z,39.50
2022-11-13T22:20:23.126Z,40.93
2022-11-13T22:23:09.761Z,40.40
2022-11-13T22:26:00.036Z,41.50
2022-11-13T22:28:47.350Z,41.30
2022-11-13T22:31:34.081Z,43.50
2022-11-13T22:34:21.236Z,40.90
2022-11-13T22:37:09.575Z,41.87
2022-11-13T22:39:55.944Z,42.70
2022-11-13T22:42:43.000Z,45.00
2022-11-13T22:45:29.178Z,46.33
2022-11-13T22:48:15.885Z,44.67
2022-11-13T22:51:06.432Z,45.57
2022-11-13T22:53:55.378Z,44.07
2022-11-13T22:56:42.268Z,45.40
2022-11-13T22:59:29.071Z,44.20
2022-11-13T23:02:15.020Z,45.37
2022-11-13T23:05:01.744Z,44.73
2022-11-13T23:07:50.103Z,46.23
2022-11-13T23:10:38.158Z,44.60
2022-11-13T23:13:24.533Z,46.33
2022-11-13T23:16:11.940Z,45.77
2022-11-13T23:18:59.429Z,44.97
2022-11-13T23:21:46.761Z,47.40
2022-11-13T23:24:33.233Z,47.77
2022-11-13T23:27:21.273Z,47.37
2022-11-13T23:30:08.193Z,45.53
2022-11-13T23:32:55.516Z,45.23
2022-11-13T23:35:42.597Z,48.77
2022-11-13T23:38:29.158Z,47.63
2022-11-13T23:41:15.902Z,47.10
2022-11-13T23:44:11.038Z,46.80
2022-11-13T23:46:57.668Z,47.20
2022-11-13T23:49:44.491Z,47.87
2022-11-13T23:52:30.636Z,47.97
2022-11-13T23:55:17.822Z,49.10
2022-11-13T23:58:04.970Z,48.70
